Time;durP1;ratioP1;P1;durP2;ratioP2;P2;SDS_P1;SDS_P2;PMS_P1;PMS_P2;Temp;Humidity;BMP_temperature;BMP_pressure;BME280_temperature;BME280_humidity;BME280_pressure;Samples;Min_cycle;Max_cycle;Signal;HPM_P1;HPM_P2
2022/11/14 00:00:48;;;;;;;40.63;19.75;;;;;;;1.70;100.00;101473.19;5203626;28;20026;-71
2022/11/14 00:03:19;;;;;;;40.47;20.58;;;;;;;1.69;100.00;101466.22;5204496;28;20032;-71
2022/11/14 00:05:49;;;;;;;46.00;21.67;;;;;;;1.68;100.00;101469.81;5204986;28;20025;-71
2022/11/14 00:08:22;;;;;;;35.10;19.80;;;;;;;1.65;100.00;101465.53;5204437;28;20110;-71
2022/11/14 00:10:52;;;;;;;37.45;18.95;;;;;;;1.60;100.00;101464.97;5204628;28;20029;-71
2022/11/14 00:13:23;;;;;;;45.53;22.35;;;;;;;1.55;100.00;101459.13;5204726;28;20026;-71
2022/11/14 00:15:53;;;;;;;45.33;22.50;;;;;;;1.50;100.00;101451.47;5204512;28;20401;-71
2022/11/14 00:18:24;;;;;;;43.47;22.33;;;;;;;1.49;100.00;101454.19;5204032;28;20026;-71
2022/11/14 00:20:54;;;;;;;37.67;19.35;;;;;;;1.49;100.00;101451.56;5204903;28;20017;-70
2022/11/14 00:23:25;;;;;;;44.22;21.80;;;;;;;1.46;100.00;101449.97;5204823;28;20367;-71
2022/11/14 00:25:55;;;;;;;43.88;22.00;;;;;;;1.45;100.00;101455.31;5203496;28;20037;-71
2022/11/14 00:28:26;;;;;;;48.25;23.08;;;;;;;1.43;100.00;101446.66;5190611;28;20064;-71
2022/11/14 00:30:56;;;;;;;45.78;24.17;;;;;;;1.40;100.00;101442.38;5202445;28;20029;-71
2022/11/14 00:33:27;;;;;;;48.60;25.48;;;;;;;1.37;100.00;101444.38;5204720;28;20028;-71
2022/11/14 00:35:57;;;;;;;47.17;22.95;;;;;;;1.33;100.00;101443.72;5204605;28;20025;-71
2022/11/14 00:38:27;;;;;;;46.15;23.35;;;;;;;1.31;100.00;101434.19;5203687;28;20117;-71
2022/11/14 00:40:58;;;;;;;49.33;24.20;;;;;;;1.30;100.00;101435.94;5204505;28;20052;-71
2022/11/14 00:43:28;;;;;;;50.70;22.98;;;;;;;1.27;100.00;101434.34;5204519;28;20087;-71
2022/11/14 00:45:59;;;;;;;48.28;23.15;;;;;;;1.23;100.00;101438.13;5204037;28;20017;-71
2022/11/14 00:48:29;;;;;;;36.83;20.10;;;;;;;1.22;100.00;101438.22;5203996;28;20056;-71
2022/11/14 00:51:00;;;;;;;34.63;19.70;;;;;;;1.20;100.00;101434.81;5203991;28;20083;-71
2022/11/14 00:53:30;;;;;;;36.58;19.17;;;;;;;1.15;100.00;101426.28;5204255;28;20025;-71
2022/11/14 00:56:01;;;;;;;36.67;19.75;;;;;;;1.11;100.00;101423.00;5204248;28;20044;-71
2022/11/14 00:58:32;;;;;;;36.13;20.48;;;;;;;1.08;100.00;101428.47;5203654;28;20025;-71
2022/11/14 01:01:03;;;;;;;40.28;22.48;;;;;;;1.05;100.00;101418.06;5203999;28;20068;-71
2022/11/14 01:03:33;;;;;;;43.58;23.13;;;;;;;1.07;100.00;101420.63;5203634;28;20021;-71
2022/11/14 01:06:06;;;;;;;39.88;20.58;;;;;;;1.04;100.00;101417.22;5204174;28;20024;-71
2022/11/14 01:08:37;;;;;;;36.70;20.20;;;;;;;1.00;100.00;101415.72;5203513;28;20080;-71
2022/11/14 01:11:14;;;;;;;39.17;21.00;;;;;;;0.96;100.00;101402.78;5203956;28;20053;-71
2022/11/14 01:13:45;;;;;;;36.97;19.65;;;;;;;0.93;100.00;101405.59;5203824;28;20076;-71
2022/11/14 01:16:16;;;;;;;40.15;20.05;;;;;;;0.90;100.00;101397.84;5203480;28;20499;-71
2022/11/14 01:18:47;;;;;;;36.53;20.55;;;;;;;0.88;100.00;101394.44;5203821;28;20164;-71
2022/11/14 01:21:17;;;;;;;39.65;21.35;;;;;;;0.85;100.00;101395.47;5203987;28;20026;-71
2022/11/14 01:23:48;;;;;;;37.35;18.85;;;;;;;0.86;100.00;101393.69;5208694;28;20029;-71
2022/11/14 01:26:18;;;;;;;33.55;19.50;;;;;;;0.83;100.00;101383.31;5192784;28;20017;-71
2022/11/14 01:28:49;;;;;;;38.97;20.67;;;;;;;0.78;100.00;101384.41;5196866;28;20064;-71
2022/11/14 01:31:22;;;;;;;36.13;19.35;;;;;;;0.74;100.00;101382.91;5205613;28;20025;-71
2022/11/14 01:33:53;;;;;;;36.97;19.13;;;;;;;0.71;100.00;101375.16;5208064;28;20490;-70
2022/11/14 01:36:24;;;;;;;40.33;20.60;;;;;;;0.69;100.00;101376.19;5208004;28;20588;-70
2022/11/14 01:38:54;;;;;;;39.78;21.33;;;;;;;0.68;100.00;101385.06;5206950;28;20064;-70
2022/11/14 01:41:25;;;;;;;37.15;20.48;;;;;;;0.69;100.00;101376.19;5207926;28;20079;-70
2022/11/14 01:43:55;;;;;;;42.25;21.02;;;;;;;0.68;100.00;101367.41;5207895;28;20120;-70
2022/11/14 01:46:36;;;;;;;41.17;21.63;;;;;;;0.70;100.00;101369.97;5207606;28;20037;-70
2022/11/14 01:49:29;;;;;;;45.25;21.75;;;;;;;0.68;100.00;101369.22;5207507;28;20029;-70
2022/11/14 01:52:15;;;;;;;47.50;24.60;;;;;;;0.66;100.00;101369.31;5207565;28;20025;-70
2022/11/14 01:54:50;;;;;;;48.13;25.85;;;;;;;0.66;100.00;101361.38;5207797;28;20025;-70
2022/11/14 01:57:26;;;;;;;48.17;23.98;;;;;;;0.67;100.00;101367.50;5207128;28;20021;-70
2022/11/14 02:00:01;;;;;;;45.00;22.85;;;;;;;0.65;100.00;101359.69;5207181;28;20060;-71
2022/11/14 02:02:31;;;;;;;;;;;;;;;0.64;100.00;101365.88;5207881;28;20041;-71
2022/11/14 02:05:06;;;;;;;52.83;22.80;;;;;;;0.59;100.00;101356.53;5207843;28;19909;-71
2022/11/14 02:07:39;;;;;;;44.97;22.50;;;;;;;0.54;100.00;101348.88;5207425;28;20028;-71
2022/11/14 02:10:16;;;;;;;48.97;22.55;;;;;;;0.52;100.00;101353.41;5207160;28;20057;-71
2022/11/14 02:12:49;;;;;;;41.15;21.92;;;;;;;0.49;100.00;101348.31;5207652;28;20021;-71
2022/11/14 02:15:27;;;;;;;46.00;20.67;;;;;;;0.45;100.00;101344.13;5207435;28;20025;-71
2022/11/14 02:17:58;;;;;;;44.03;21.73;;;;;;;0.42;100.00;101346.97;5207447;28;20040;-72
2022/11/14 02:20:32;;;;;;;38.58;22.05;;;;;;;0.41;100.00;101340.00;5207582;28;20018;-71
2022/11/14 02:23:03;;;;;;;55.73;25.03;;;;;;;0.41;100.00;101338.22;5207211;28;20037;-71
2022/11/14 02:25:34;;;;;;;54.03;26.15;;;;;;;0.42;100.00;101333.78;5199166;28;20681;-71
2022/11/14 02:28:08;;;;;;;50.58;26.52;;;;;;;0.42;100.00;101339.06;5190366;28;20026;-71
2022/11/14 02:30:39;;;;;;;51.03;25.90;;;;;;;0.40;100.00;101343.56;5207156;28;20400;-71
2022/11/14 02:33:09;;;;;;;55.05;26.10;;;;;;;0.41;100.00;101332.94;5205462;28;20021;-71
2022/11/14 02:35:40;;;;;;;51.38;22.98;;;;;;;0.41;100.00;101324.16;5207549;28;20108;-71
2022/11/14 02:38:10;;;;;;;50.90;23.27;;;;;;;0.41;100.00;101327.66;5206628;28;20525;-70
2022/11/14 02:40:41;;;;;;;49.63;24.75;;;;;;;0.39;100.00;101324.22;5207107;28;20056;-71
2022/11/14 02:43:12;;;;;;;42.97;22.73;;;;;;;0.38;100.00;101321.69;5206982;28;20026;-71
2022/11/14 02:45:43;;;;;;;46.47;22.98;;;;;;;0.36;100.00;101321.78;5206163;28;20025;-71
2022/11/14 02:48:13;;;;;;;36.60;20.20;;;;;;;0.35;100.00;101312.19;5206349;28;20071;-71
2022/11/14 02:50:47;;;;;;;47.22;21.60;;;;;;;0.38;100.00;101308.50;5206886;28;20021;-71
2022/11/14 02:53:18;;;;;;;40.30;21.23;;;;;;;0.37;100.00;101298.88;5206833;28;20468;-71
2022/11/14 02:55:48;;;;;;;46.58;21.38;;;;;;;0.38;100.00;101297.94;5206680;28;20028;-71
2022/11/14 02:58:19;;;;;;;45.70;22.25;;;;;;;0.38;100.00;101296.13;5205681;28;20082;-71
2022/11/14 03:00:58;;;;;;;43.50;23.48;;;;;;;0.38;100.00;101300.56;5194433;28;20025;-73
2022/11/14 03:03:29;;;;;;;44.15;23.23;;;;;;;0.33;100.00;101305.28;5206519;28;20456;-71
2022/11/14 03:06:00;;;;;;;44.60;22.27;;;;;;;0.28;100.00;101302.03;5206524;28;20017;-71
2022/11/14 03:08:31;;;;;;;43.88;21.70;;;;;;;0.23;100.00;101297.88;5205412;28;20025;-71
2022/11/14 03:11:06;;;;;;;46.20;22.60;;;;;;;0.19;100.00;101298.16;5206289;28;20182;-70
2022/11/14 03:13:37;;;;;;;38.20;20.75;;;;;;;0.15;100.00;101302.78;5206143;28;20021;-71
2022/11/14 03:16:10;;;;;;;59.20;19.73;;;;;;;0.07;100.00;101305.00;5206296;28;20022;-71
2022/11/14 03:18:41;;;;;;;36.60;18.45;;;;;;;-0.04;100.00;101308.25;5205723;28;20045;-71
2022/11/14 03:21:14;;;;;;;42.40;21.52;;;;;;;-0.11;100.00;101298.97;5205716;28;20038;-71
2022/11/14 03:23:45;;;;;;;51.60;22.98;;;;;;;-0.16;100.00;101302.78;5205952;28;20029;-71
2022/11/14 03:26:16;;;;;;;39.20;21.40;;;;;;;-0.18;100.00;101302.03;5191433;28;20018;-71
2022/11/14 03:28:46;;;;;;;50.28;22.05;;;;;;;-0.21;100.00;101304.84;5193904;28;20025;-70
2022/11/14 03:31:17;;;;;;;51.97;21.75;;;;;;;-0.26;100.00;101308.56;5203568;28;20018;-71
2022/11/14 03:33:47;;;;;;;48.40;22.80;;;;;;;-0.32;100.00;101314.19;5205517;28;20094;-70
2022/11/14 03:36:18;;;;;;;56.95;26.05;;;;;;;-0.34;100.00;101305.53;5205781;28;20109;-71
2022/11/14 03:38:48;;;;;;;58.90;25.73;;;;;;;-0.35;100.00;101305.59;5205065;28;20044;-70
2022/11/14 03:41:19;;;;;;;52.08;24.60;;;;;;;-0.37;100.00;101304.84;5205744;28;20068;-70
2022/11/14 03:43:49;;;;;;;54.85;25.88;;;;;;;-0.38;100.00;101309.28;5205483;28;20068;-70
2022/11/14 03:46:20;;;;;;;47.47;24.17;;;;;;;-0.38;100.00;101308.44;5204744;28;20028;-70
2022/11/14 03:48:50;;;;;;;51.85;22.80;;;;;;;-0.34;100.00;101300.25;5205229;28;20024;-70
2022/11/14 03:51:21;;;;;;;46.10;23.98;;;;;;;-0.30;100.00;101299.16;5205586;28;20083;-71
2022/11/14 03:53:51;;;;;;;56.22;25.40;;;;;;;-0.31;100.00;101300.06;5205861;28;20085;-70
2022/11/14 03:56:22;;;;;;;52.30;24.45;;;;;;;-0.36;100.00;101298.63;5205397;28;20026;-71
2022/11/14 03:58:52;;;;;;;49.50;23.08;;;;;;;-0.40;100.00;101297.97;5203823;28;20096;-71
2022/11/14 04:01:23;;;;;;;47.13;22.48;;;;;;;-0.43;100.00;101289.38;5205457;28;20044;-70
2022/11/14 04:03:54;;;;;;;51.70;22.02;;;;;;;-0.44;100.00;101292.97;5205225;28;20108;-70
2022/11/14 04:06:24;;;;;;;56.03;23.85;;;;;;;-0.43;100.00;101286.75;5205176;28;20456;-71
2022/11/14 04:08:55;;;;;;;46.17;23.45;;;;;;;-0.46;100.00;101281.63;5204375;28;20551;-70
2022/11/14 04:11:26;;;;;;;56.90;24.20;;;;;;;-0.48;100.00;101276.44;5204879;28;20048;-70
2022/11/14 04:13:56;;;;;;;53.90;23.45;;;;;;;-0.47;100.00;101272.88;5204949;28;20017;-69
2022/11/14 04:16:27;;;;;;;45.60;22.92;;;;;;;-0.46;100.00;101271.94;5204778;28;20024;-70
2022/11/14 04:18:57;;;;;;;50.42;23.25;;;;;;;-0.51;100.00;101268.69;5204417;28;20502;-70
2022/11/14 04:21:28;;;;;;;57.67;24.63;;;;;;;-0.54;100.00;101266.25;5204657;28;20041;-70
2022/11/14 04:23:58;;;;;;;47.45;23.15;;;;;;;-0.58;100.00;101260.28;5204661;28;20028;-71
2022/11/14 04:26:29;;;;;;;55.75;24.23;;;;;;;-0.62;100.00;101261.38;5187897;28;20110;-70
2022/11/14 04:28:59;;;;;;;42.78;21.63;;;;;;;-0.65;100.00;101271.28;5195536;28;20027;-70
2022/11/14 04:31:29;;;;;;;42.67;21.17;;;;;;;-0.71;100.00;101251.34;5202264;28;20104;-70
2022/11/14 04:34:00;;;;;;;43.67;22.00;;;;;;;-0.73;100.00;101255.88;5204388;28;20044;-70
2022/11/14 04:36:30;;;;;;;42.85;21.70;;;;;;;-0.76;100.00;101244.63;5204808;28;20100;-71
2022/11/14 04:39:01;;;;;;;46.08;21.10;;;;;;;-0.76;100.00;101242.00;5203960;28;20505;-70
2022/11/14 04:41:31;;;;;;;43.75;22.75;;;;;;;-0.76;100.00;101237.56;5204574;28;20036;-71
2022/11/14 04:44:02;;;;;;;53.38;23.70;;;;;;;-0.76;100.00;101237.56;5204384;28;20018;-71
2022/11/14 04:46:33;;;;;;;42.33;22.30;;;;;;;-0.74;100.00;101237.50;5204026;28;20026;-71
2022/11/14 04:49:03;;;;;;;42.13;20.85;;;;;;;-0.76;100.00;101239.38;5204163;28;20021;-71
2022/11/14 04:51:34;;;;;;;44.78;21.38;;;;;;;-0.79;100.00;101238.63;5204537;28;20372;-71
2022/11/14 04:54:04;;;;;;;80.68;24.25;;;;;;;-0.82;100.00;101238.78;5204451;28;20116;-71
2022/11/14 04:56:35;;;;;;;165.25;26.17;;;;;;;-0.84;100.00;101242.44;5202238;28;20033;-71
2022/11/14 04:59:05;;;;;;;76.20;24.15;;;;;;;-0.90;100.00;101243.63;5203460;28;20530;-72
2022/11/14 05:01:36;;;;;;;43.50;21.75;;;;;;;-0.93;100.00;101235.03;5204455;28;20028;-72
2022/11/14 05:04:06;;;;;;;44.97;21.52;;;;;;;-0.93;100.00;101229.75;5204151;28;20026;-71
2022/11/14 05:06:37;;;;;;;53.97;25.77;;;;;;;-0.95;100.00;101237.75;5204276;28;20029;-70
2022/11/14 05:09:07;;;;;;;47.50;22.45;;;;;;;-0.96;100.00;101236.03;5204192;28;20025;-70
2022/11/14 05:11:38;;;;;;;41.72;20.92;;;;;;;-0.97;100.00;101239.59;5203851;28;20022;-70
2022/11/14 05:14:08;;;;;;;40.20;21.35;;;;;;;-0.99;100.00;101241.47;5204713;28;20021;-71
2022/11/14 05:16:39;;;;;;;45.70;22.00;;;;;;;-1.01;100.00;101238.06;5204043;28;20025;-70
2022/11/14 05:19:09;;;;;;;41.03;21.38;;;;;;;-1.02;100.00;101231.09;5203867;28;20029;-71
2022/11/14 05:21:39;;;;;;;42.38;21.77;;;;;;;-1.04;100.00;101238.25;5204824;28;20031;-70
2022/11/14 05:24:10;;;;;;;38.42;18.98;;;;;;;-1.05;100.00;101242.66;5203765;28;20052;-70
2022/11/14 05:26:40;;;;;;;43.60;20.50;;;;;;;-1.04;100.00;101235.59;5192228;28;20475;-70
2022/11/14 05:29:11;;;;;;;42.20;19.88;;;;;;;-1.02;100.00;101238.16;5204194;28;20018;-70
2022/11/14 05:31:41;;;;;;;46.25;23.15;;;;;;;-1.00;100.00;101231.00;5201291;28;20036;-70
2022/11/14 05:34:12;;;;;;;46.25;22.80;;;;;;;-0.97;100.00;101229.06;5203026;28;20022;-70
2022/11/14 05:36:42;;;;;;;53.85;24.83;;;;;;;-0.93;100.00;101227.13;5204094;28;20033;-70
2022/11/14 05:39:13;;;;;;;44.05;21.10;;;;;;;-0.96;100.00;101237.81;5203210;28;20383;-70
2022/11/14 05:41:43;;;;;;;43.28;20.88;;;;;;;-0.95;100.00;101227.22;5203977;28;20053;-70
2022/11/14 05:44:14;;;;;;;49.40;24.08;;;;;;;-0.95;100.00;101235.13;5203914;28;20014;-70
2022/11/14 05:46:44;;;;;;;50.90;22.42;;;;;;;-0.95;100.00;101215.84;5203888;28;20033;-70
2022/11/14 05:49:15;;;;;;;53.35;22.80;;;;;;;-0.93;100.00;101229.75;5203276;28;20407;-70
2022/11/14 05:51:45;;;;;;;40.60;21.95;;;;;;;-0.93;100.00;101227.13;5203852;28;20455;-71
2022/11/14 05:54:15;;;;;;;49.00;23.00;;;;;;;-0.97;100.00;101234.34;5203838;28;20025;-70
2022/11/14 05:56:46;;;;;;;46.47;23.35;;;;;;;-0.99;100.00;101230.09;5203757;28;20134;-71
2022/11/14 05:59:16;;;;;;;46.83;22.88;;;;;;;-1.01;100.00;101224.88;5203238;28;20021;-71
2022/11/14 06:01:47;;;;;;;45.22;22.27;;;;;;;-1.02;100.00;101227.63;5203548;28;20104;-71
2022/11/14 06:04:17;;;;;;;49.25;21.92;;;;;;;-1.03;100.00;101220.66;5203833;28;20029;-70
2022/11/14 06:06:48;;;;;;;44.28;22.58;;;;;;;-1.07;100.00;101223.44;5203417;28;20128;-71
2022/11/14 06:09:18;;;;;;;45.00;21.98;;;;;;;-1.08;100.00;101219.13;5205460;28;20029;-71
2022/11/14 06:11:49;;;;;;;51.03;24.60;;;;;;;-1.11;100.00;101218.41;5206966;28;20168;-71
2022/11/14 06:14:19;;;;;;;50.10;24.25;;;;;;;-1.13;100.00;101222.94;5207298;28;20028;-71
2022/11/14 06:16:50;;;;;;;45.75;22.38;;;;;;;-1.18;100.00;101225.81;5206892;28;20100;-71
2022/11/14 06:19:20;;;;;;;44.22;20.50;;;;;;;-1.23;100.00;101224.34;5207207;28;20083;-70
2022/11/14 06:21:51;;;;;;;42.50;20.60;;;;;;;-1.25;100.00;101220.97;5207179;28;20110;-71
2022/11/14 06:24:21;;;;;;;42.47;22.02;;;;;;;-1.25;100.00;101224.44;5206388;28;20025;-71
2022/11/14 06:26:52;;;;;;;43.75;22.00;;;;;;;-1.26;100.00;101227.97;5187283;28;20049;-71
2022/11/14 06:29:22;;;;;;;46.75;22.27;;;;;;;-1.26;100.00;101227.13;5200886;28;20049;-71
2022/11/14 06:31:53;;;;;;;48.97;22.80;;;;;;;-1.28;100.00;101229.00;5204444;28;20079;-71
2022/11/14 06:34:23;;;;;;;43.20;21.75;;;;;;;-1.28;100.00;101221.13;5206989;28;20049;-71
2022/11/14 06:36:54;;;;;;;43.13;20.67;;;;;;;-1.31;100.00;101236.16;5206421;28;20075;-71
2022/11/14 06:39:24;;;;;;;41.38;20.88;;;;;;;-1.31;100.00;101238.78;5206441;28;20502;-71
2022/11/14 06:41:55;;;;;;;37.70;20.02;;;;;;;-1.31;100.00;101240.53;5207054;28;20479;-71
2022/11/14 06:44:25;;;;;;;40.92;20.65;;;;;;;-1.34;100.00;101244.19;5206537;28;20053;-71
2022/11/14 06:46:56;;;;;;;44.03;22.13;;;;;;;-1.37;100.00;101239.09;5206497;28;20051;-70
2022/11/14 06:49:26;;;;;;;42.28;21.75;;;;;;;-1.38;100.00;101231.28;5206086;28;20026;-70
2022/11/14 06:51:57;;;;;;;40.60;19.98;;;;;;;-1.38;100.00;101229.50;5206834;28;20029;-70
2022/11/14 06:54:27;;;;;;;51.88;23.23;;;;;;;-1.36;100.00;101227.63;5206799;28;20025;-70
2022/11/14 06:56:58;;;;;;;49.33;23.35;;;;;;;-1.33;100.00;101229.25;5206657;28;20021;-70
2022/11/14 06:59:28;;;;;;;51.60;23.52;;;;;;;-1.32;100.00;101229.16;5206326;28;20075;-70
2022/11/14 07:01:59;;;;;;;52.55;24.88;;;;;;;-1.29;100.00;101229.94;5206214;28;20025;-71
2022/11/14 07:04:29;;;;;;;54.47;25.55;;;;;;;-1.27;100.00;101228.91;5206435;28;20025;-70
2022/11/14 07:07:00;;;;;;;54.80;25.80;;;;;;;-1.25;100.00;101227.09;5205889;28;20021;-70
2022/11/14 07:09:30;;;;;;;58.78;26.27;;;;;;;-1.23;100.00;101227.00;5206501;28;20395;-70
2022/11/14 07:12:01;;;;;;;49.45;23.75;;;;;;;-1.22;100.00;101237.44;5206161;28;20029;-69
2022/11/14 07:14:31;;;;;;;48.10;24.20;;;;;;;-1.16;100.00;101233.63;5206768;28;20493;-70
2022/11/14 07:17:02;;;;;;;57.33;25.05;;;;;;;-1.13;100.00;101238.72;5205671;28;20522;-70
2022/11/14 07:19:32;;;;;;;52.38;24.48;;;;;;;-1.09;100.00;101235.84;5204075;28;20517;-70
2022/11/14 07:22:03;;;;;;;58.75;25.90;;;;;;;-1.02;100.00;101246.06;5204857;28;20105;-70
2022/11/14 07:24:34;;;;;;;52.30;23.98;;;;;;;-1.02;100.00;101246.06;5205863;28;20049;-70
2022/11/14 07:27:07;;;;;;;54.05;23.75;;;;;;;-0.96;100.00;101248.34;5216862;28;20076;-70
2022/11/14 07:29:37;;;;;;;50.42;23.58;;;;;;;-0.81;100.00;101239.63;5202202;28;20029;-70
2022/11/14 07:32:08;;;;;;;44.95;20.88;;;;;;;-0.62;100.00;101231.56;5203719;28;20030;-70
2022/11/14 07:34:39;;;;;;;46.53;21.83;;;;;;;-0.37;100.00;101228.41;5205743;28;20021;-70
2022/11/14 07:37:09;;;;;;;40.13;19.73;;;;;;;-0.12;100.00;101223.41;5205534;28;20029;-70
2022/11/14 07:39:40;;;;;;;33.78;18.25;;;;;;;0.15;100.00;101218.34;5205205;28;20116;-70
2022/11/14 07:42:10;;;;;;;38.80;19.05;;;;;;;0.52;100.00;101221.41;5205706;28;20079;-70
2022/11/14 07:44:41;;;;;;;36.10;18.30;;;;;;;0.86;100.00;101222.00;5205288;28;20021;-70
2022/11/14 07:47:11;;;;;;;36.53;17.95;;;;;;;1.21;100.00;101225.09;5204981;28;20033;-70
2022/11/14 07:49:42;;;;;;;35.03;18.33;;;;;;;1.58;100.00;101226.22;5205921;28;20018;-71
2022/11/14 07:52:12;;;;;;;31.20;16.95;;;;;;;1.88;100.00;101227.81;5205557;28;20035;-70
2022/11/14 07:54:43;;;;;;;32.67;18.02;;;;;;;2.06;100.00;101221.31;5205435;28;20021;-71
2022/11/14 07:57:13;;;;;;;39.95;19.05;;;;;;;2.26;100.00;101228.75;5204723;28;20052;-70
2022/11/14 07:59:44;;;;;;;36.58;16.42;;;;;;;2.51;100.00;101219.13;5202023;28;20104;-72
2022/11/14 08:02:14;;;;;;;29.33;16.98;;;;;;;2.77;100.00;101218.19;5191812;28;20022;-70
2022/11/14 08:04:45;;;;;;;30.50;17.02;;;;;;;2.88;100.00;101212.13;5203336;28;20116;-71
2022/11/14 08:07:15;;;;;;;31.85;17.10;;;;;;;3.12;100.00;101206.91;5202852;28;20096;-71
2022/11/14 08:09:46;;;;;;;27.90;16.50;;;;;;;3.75;100.00;101195.19;5202895;28;20025;-71
2022/11/14 08:12:17;;;;;;;32.42;17.42;;;;;;;3.73;100.00;101197.13;5203123;28;20075;-71
2022/11/14 08:14:47;;;;;;;33.83;17.35;;;;;;;3.76;100.00;101194.22;5203080;28;20447;-71
2022/11/14 08:17:20;;;;;;;35.60;20.05;;;;;;;3.89;100.00;101191.53;5201455;28;20125;-71
2022/11/14 08:19:50;;;;;;;36.25;19.23;;;;;;;4.18;100.00;101194.66;5202670;28;20480;-68
2022/11/14 08:22:21;;;;;;;32.17;18.85;;;;;;;4.56;100.00;101190.84;5203158;28;20032;-69
2022/11/14 08:24:51;;;;;;;29.77;17.27;;;;;;;4.83;100.00;101191.38;5200390;28;20125;-69
2022/11/14 08:27:22;;;;;;;31.23;17.65;;;;;;;5.17;100.00;101189.53;5182043;28;20375;-69
2022/11/14 08:29:53;;;;;;;34.60;19.35;;;;;;;5.22;100.00;101180.31;5200973;28;20021;-69
2022/11/14 08:32:23;;;;;;;34.13;17.83;;;;;;;5.11;100.00;101181.19;5200610;28;20087;-72
2022/11/14 08:34:54;;;;;;;38.05;18.30;;;;;;;5.39;100.00;101180.66;5202832;28;20025;-72
2022/11/14 08:37:24;;;;;;;29.85;17.40;;;;;;;5.62;100.00;101173.47;5202533;28;20286;-72
2022/11/14 08:39:55;;;;;;;30.92;18.38;;;;;;;5.64;100.00;101174.16;5201928;28;20095;-72
2022/11/14 08:42:25;;;;;;;28.52;16.95;;;;;;;5.78;100.00;101182.84;5202863;28;20026;-72
2022/11/14 08:44:56;;;;;;;26.90;16.73;;;;;;;6.02;100.00;101179.97;5202742;28;20031;-72
2022/11/14 08:47:26;;;;;;;29.45;16.40;;;;;;;6.08;100.00;101177.66;5202414;28;20017;-72
2022/11/14 08:49:57;;;;;;;27.98;17.58;;;;;;;6.12;100.00;101171.06;5202293;28;20029;-72
2022/11/14 08:52:27;;;;;;;31.25;17.75;;;;;;;6.26;100.00;101172.56;5202611;28;20537;-69
2022/11/14 08:54:58;;;;;;;26.17;16.48;;;;;;;6.70;100.00;101173.25;5203417;28;20033;-70
2022/11/14 08:57:28;;;;;;;28.15;15.93;;;;;;;7.29;100.00;101171.63;5202180;28;20017;-70
2022/11/14 08:59:59;;;;;;;27.75;16.80;;;;;;;7.53;100.00;101164.09;5202261;28;20116;-70
2022/11/14 09:02:29;;;;;;;28.83;17.10;;;;;;;7.57;100.00;101168.16;5202853;28;20036;-70
2022/11/14 09:05:00;;;;;;;26.88;16.25;;;;;;;7.54;100.00;101171.13;5201094;28;20029;-70
2022/11/14 09:07:31;;;;;;;31.13;16.50;;;;;;;7.40;100.00;101160.84;5202243;28;20479;-70
2022/11/14 09:10:03;;;;;;;27.38;16.65;;;;;;;7.45;100.00;101161.25;5202125;28;20179;-70
2022/11/14 09:12:33;;;;;;;25.70;15.90;;;;;;;7.61;100.00;101158.03;5202594;28;20025;-70
2022/11/14 09:15:04;;;;;;;26.80;16.13;;;;;;;7.84;100.00;101161.31;5202303;28;20028;-70
2022/11/14 09:17:35;;;;;;;27.42;15.93;;;;;;;8.04;100.00;101155.81;5201743;28;20036;-70
2022/11/14 09:20:05;;;;;;;23.98;15.73;;;;;;;8.17;100.00;101151.97;5201950;28;20047;-70
2022/11/14 09:22:36;;;;;;;24.75;16.00;;;;;;;8.39;100.00;101151.69;5202434;28;20024;-71
2022/11/14 09:25:07;;;;;;;27.95;16.42;;;;;;;8.68;100.00;101150.75;5202009;28;20025;-70
2022/11/14 09:27:38;;;;;;;29.52;15.88;;;;;;;8.63;100.00;101153.84;5188157;28;20022;-70
2022/11/14 09:30:09;;;;;;;31.42;16.05;;;;;;;8.69;100.00;101155.13;5201910;28;20095;-70
2022/11/14 09:32:40;;;;;;;29.20;16.05;;;;;;;8.77;100.00;101147.19;5199618;28;20537;-70
2022/11/14 09:35:11;;;;;;;26.50;15.63;;;;;;;8.88;100.00;101135.44;5202505;28;20017;-70
2022/11/14 09:37:42;;;;;;;27.25;15.68;;;;;;;8.96;100.00;101131.06;5201697;28;20511;-70
2022/11/14 09:40:13;;;;;;;24.73;15.80;;;;;;;9.01;100.00;101139.47;5201623;28;20039;-70
2022/11/14 09:43:01;;;;;;;24.52;14.98;;;;;;;9.06;100.00;101131.84;5203104;28;20021;-70
2022/11/14 09:45:35;;;;;;;23.85;14.40;;;;;;;9.13;100.00;101132.06;5201478;28;20471;-70
2022/11/14 09:48:13;;;;;;;22.90;14.48;;;;;;;9.17;100.00;101127.28;5205572;28;20505;-70
2022/11/14 09:50:59;;;;;;;23.33;12.75;;;;;;;9.17;100.00;101137.97;5204457;28;20037;-71
2022/11/14 09:53:55;;;;;;;25.83;14.43;;;;;;;9.23;100.00;101132.00;5206203;28;20017;-69
2022/11/14 09:56:26;;;;;;;20.15;11.38;;;;;;;9.14;100.00;101143.66;5191336;28;20037;-70
2022/11/14 09:58:56;;;;;;;22.67;10.73;;;;;;;9.03;100.00;101137.47;5203694;28;20036;-70
2022/11/14 10:01:42;;;;;;;18.80;10.70;;;;;;;8.90;100.00;101137.00;5206070;28;20497;-70
2022/11/14 10:04:19;;;;;;;21.33;11.75;;;;;;;8.84;100.00;101134.09;5205350;28;20044;-70
2022/11/14 10:07:18;;;;;;;22.77;12.80;;;;;;;8.92;100.00;101129.66;5205593;28;20036;-70
2022/11/14 10:09:56;;;;;;;25.55;11.82;;;;;;;9.07;100.00;101130.00;5208322;28;20021;-70
2022/11/14 10:12:48;;;;;;;19.00;11.40;;;;;;;9.10;100.00;101129.72;5205253;28;20092;-70
2022/11/14 10:15:44;;;;;;;20.10;12.05;;;;;;;9.26;100.00;101123.69;5205408;28;20048;-72
2022/11/14 10:18:28;;;;;;;;;;;;;;;9.46;100.00;101114.53;5204595;28;21267;-71
2022/11/14 10:21:34;;;;;;;22.08;11.73;;;;;;;9.32;100.00;101113.22;5205134;28;19909;-71
2022/11/14 10:24:33;;;;;;;22.42;11.63;;;;;;;9.36;100.00;101104.88;5203637;28;20026;-70
2022/11/14 10:27:09;;;;;;;19.42;11.73;;;;;;;9.20;100.00;101108.25;5193304;28;20025;-70
2022/11/14 10:29:59;;;;;;;23.05;12.07;;;;;;;9.23;100.00;101110.59;5191650;28;20573;-70
2022/11/14 10:33:00;;;;;;;23.83;11.38;;;;;;;9.13;100.00;101110.66;5202140;28;20033;-71
2022/11/14 10:35:59;;;;;;;20.80;11.25;;;;;;;8.96;100.00;101106.13;5201046;28;20422;-70
2022/11/14 10:38:41;;;;;;;19.55;12.02;;;;;;;9.08;100.00;101112.94;5189782;28;20039;-70
2022/11/14 10:41:12;;;;;;;18.42;10.93;;;;;;;9.15;100.00;101108.69;5203082;28;20033;-71
2022/11/14 10:43:45;;;;;;;18.42;11.00;;;;;;;9.32;100.00;101099.00;5204972;28;20037;-70
2022/11/14 10:46:44;;;;;;;18.05;10.80;;;;;;;9.55;100.00;101094.88;5205015;28;20487;-71
2022/11/14 10:49:19;;;;;;;20.50;11.18;;;;;;;9.68;100.00;101090.94;5203816;28;20036;-71
2022/11/14 10:51:56;;;;;;;19.75;10.73;;;;;;;9.75;100.00;101097.38;5204550;28;20025;-70
2022/11/14 10:54:29;;;;;;;20.58;10.90;;;;;;;9.73;100.00;101096.69;5203459;28;20029;-71
2022/11/14 10:57:00;;;;;;;26.83;11.32;;;;;;;9.76;100.00;101091.03;5204301;28;20547;-71
2022/11/14 10:59:30;;;;;;;18.10;11.15;;;;;;;9.67;100.00;101094.63;5203690;28;20021;-71
2022/11/14 11:02:00;;;;;;;17.45;11.05;;;;;;;9.74;100.00;101101.03;5191016;28;20028;-71
2022/11/14 11:04:33;;;;;;;19.92;11.40;;;;;;;9.84;100.00;101101.81;5204698;28;20030;-71
2022/11/14 11:07:06;;;;;;;19.08;10.73;;;;;;;9.78;100.00;101113.13;5203600;28;20383;-71
2022/11/14 11:12:44;;;;;;;23.98;11.10;;;;;;;9.81;100.00;101111.00;5204152;28;20470;-71
2022/11/14 11:15:19;;;;;;;17.50;11.23;;;;;;;9.95;100.00;101112.28;5204516;28;20025;-71
2022/11/14 11:18:03;;;;;;;18.42;11.02;;;;;;;10.13;100.00;101106.88;5203685;28;20094;-71
2022/11/14 11:20:40;;;;;;;21.17;10.43;;;;;;;10.21;100.00;101103.41;5203845;28;20029;-71
2022/11/14 11:23:10;;;;;;;24.08;11.82;;;;;;;10.31;100.00;101109.56;5203811;28;20026;-71
2022/11/14 11:25:41;;;;;;;18.23;10.70;;;;;;;10.46;100.00;101109.81;5193325;28;20056;-71
2022/11/14 11:28:15;;;;;;;19.52;11.18;;;;;;;10.51;100.00;101099.44;5187340;28;20104;-71
2022/11/14 11:31:03;;;;;;;18.37;10.40;;;;;;;10.16;100.00;101087.81;5201407;28;20059;-71
2022/11/14 11:33:36;;;;;;;17.20;10.60;;;;;;;10.10;100.00;101086.59;5192281;28;20104;-71